<?xml version="1.0" encoding="UTF-8" standalone="no" ?>
<gpx xmlns="http://www.topografix.com/GPX/1/1" xmlns:xsi="http://www.w3.org/2001/XMLSchema-instance" xsi:schemaLocation="http://www.topografix.com/GPX/1/1 http://www.topografix.com/GPX/1/1/gpx.xsd" version="1.1" creator="VisuGPX - https://www.visugpx.com">
  <metadata>
    <name>Trail du Val Louron</name>
    <desc><![CDATA[Très beau parcours]]></desc>
  </metadata>
  <trk>
    <name><![CDATA[Trail du Val Louron_1]]></name>
    <trkseg>
      <trkpt lat="42.80895" lon="0.40203">
        <ele>977</ele>
        <time>2015-08-15T06:58:51Z</time>
      </trkpt>
      <trkpt lat="42.80919" lon="0.40204">
        <ele>978</ele>
        <time>2015-08-15T06:59:01Z</time>
      </trkpt>
      <trkpt lat="42.80938" lon="0.40229">
        <ele>977</ele>
        <time>2015-08-15T06:59:11Z</time>
      </trkpt>
      <trkpt lat="42.80958" lon="0.40258">
        <ele>976</ele>
        <time>2015-08-15T06:59:22Z</time>
      </trkpt>
      <trkpt lat="42.80983" lon="0.40287">
        <ele>975</ele>
        <time>2015-08-15T06:59:33Z</time>
      </trkpt>
      <trkpt lat="42.80989" lon="0.40318">
        <ele>976</ele>
        <time>2015-08-15T06:59:44Z</time>
      </trkpt>
      <trkpt lat="42.80968" lon="0.40349">
        <ele>974</ele>
        <time>2015-08-15T06:59:54Z</time>
      </trkpt>
      <trkpt lat="42.80944" lon="0.40385">
        <ele>973</ele>
        <time>2015-08-15T07:00:05Z</time>
      </trkpt>
      <trkpt lat="42.80921" lon="0.40413">
        <ele>973</ele>
        <time>2015-08-15T07:00:15Z</time>
      </trkpt>
      <trkpt lat="42.80898" lon="0.40442">
        <ele>973</ele>
        <time>2015-08-15T07:00:26Z</time>
      </trkpt>
      <trkpt lat="42.80889" lon="0.40468">
        <ele>975</ele>
        <time>2015-08-15T07:00:37Z</time>
      </trkpt>
      <trkpt lat="42.80877" lon="0.40494">
        <ele>977</ele>
        <time>2015-08-15T07:00:47Z</time>
      </trkpt>
      <trkpt lat="42.80862" lon="0.40523">
        <ele>976</ele>
        <time>2015-08-15T07:00:58Z</time>
      </trkpt>
      <trkpt lat="42.80846" lon="0.40549">
        <ele>973</ele>
        <time>2015-08-15T07:01:09Z</time>
      </trkpt>
      <trkpt lat="42.8084" lon="0.40556">
        <ele>969</ele>
        <time>2015-08-15T07:01:19Z</time>
      </trkpt>
      <trkpt lat="42.80827" lon="0.40564">
        <ele>965</ele>
        <time>2015-08-15T07:01:29Z</time>
      </trkpt>
      <trkpt lat="42.80809" lon="0.40535">
        <ele>964</ele>
        <time>2015-08-15T07:01:40Z</time>
      </trkpt>
      <trkpt lat="42.80778" lon="0.40534">
        <ele>964</ele>
        <time>2015-08-15T07:01:51Z</time>
      </trkpt>
      <trkpt lat="42.8075" lon="0.40533">
        <ele>964</ele>
        <time>2015-08-15T07:02:01Z</time>
      </trkpt>
      <trkpt lat="42.80721" lon="0.40531">
        <ele>964</ele>
        <time>2015-08-15T07:02:11Z</time>
      </trkpt>
      <trkpt lat="42.80697" lon="0.4052">
        <ele>965</ele>
        <time>2015-08-15T07:02:21Z</time>
      </trkpt>
      <trkpt lat="42.8067" lon="0.40525">
        <ele>965</ele>
        <time>2015-08-15T07:02:31Z</time>
      </trkpt>
      <trkpt lat="42.80638" lon="0.40537">
        <ele>965</ele>
        <time>2015-08-15T07:02:42Z</time>
      </trkpt>
      <trkpt lat="42.80613" lon="0.40553">
        <ele>965</ele>
        <time>2015-08-15T07:02:52Z</time>
      </trkpt>
      <trkpt lat="42.80586" lon="0.40568">
        <ele>964</ele>
        <time>2015-08-15T07:03:03Z</time>
      </trkpt>
      <trkpt lat="42.80554" lon="0.40568">
        <ele>964</ele>
        <time>2015-08-15T07:03:14Z</time>
      </trkpt>
      <trkpt lat="42.80529" lon="0.40554">
        <ele>964</ele>
        <time>2015-08-15T07:03:24Z</time>
      </trkpt>
      <trkpt lat="42.80507" lon="0.4053">
        <ele>964</ele>
        <time>2015-08-15T07:03:34Z</time>
      </trkpt>
      <trkpt lat="42.80487" lon="0.40497">
        <ele>964</ele>
        <time>2015-08-15T07:03:45Z</time>
      </trkpt>
      <trkpt lat="42.80468" lon="0.40466">
        <ele>964</ele>
        <time>2015-08-15T07:03:56Z</time>
      </trkpt>
      <trkpt lat="42.80442" lon="0.40461">
        <ele>965</ele>
        <time>2015-08-15T07:04:07Z</time>
      </trkpt>
      <trkpt lat="42.80416" lon="0.40469">
        <ele>964</ele>
        <time>2015-08-15T07:04:17Z</time>
      </trkpt>
      <trkpt lat="42.8039" lon="0.40481">
        <ele>964</ele>
        <time>2015-08-15T07:04:27Z</time>
      </trkpt>
      <trkpt lat="42.80365" lon="0.40501">
        <ele>964</ele>
        <time>2015-08-15T07:04:38Z</time>
      </trkpt>
      <trkpt lat="42.80337" lon="0.40522">
        <ele>964</ele>
        <time>2015-08-15T07:04:49Z</time>
      </trkpt>
      <trkpt lat="42.80313" lon="0.40548">
        <ele>964</ele>
        <time>2015-08-15T07:05:00Z</time>
      </trkpt>
      <trkpt lat="42.80298" lon="0.40579">
        <ele>964</ele>
        <time>2015-08-15T07:05:10Z</time>
      </trkpt>
      <trkpt lat="42.80288" lon="0.40615">
        <ele>964</ele>
        <time>2015-08-15T07:05:21Z</time>
      </trkpt>
      <trkpt lat="42.80281" lon="0.4065">
        <ele>964</ele>
        <time>2015-08-15T07:05:31Z</time>
      </trkpt>
      <trkpt lat="42.80274" lon="0.40682">
        <ele>964</ele>
        <time>2015-08-15T07:05:41Z</time>
      </trkpt>
      <trkpt lat="42.80273" lon="0.40719">
        <ele>965</ele>
        <time>2015-08-15T07:05:51Z</time>
      </trkpt>
      <trkpt lat="42.80275" lon="0.40756">
        <ele>964</ele>
        <time>2015-08-15T07:06:01Z</time>
      </trkpt>
      <trkpt lat="42.8028" lon="0.40791">
        <ele>964</ele>
        <time>2015-08-15T07:06:11Z</time>
      </trkpt>
      <trkpt lat="42.80289" lon="0.40828">
        <ele>964</ele>
        <time>2015-08-15T07:06:22Z</time>
      </trkpt>
      <trkpt lat="42.80299" lon="0.40862">
        <ele>964</ele>
        <time>2015-08-15T07:06:32Z</time>
      </trkpt>
      <trkpt lat="42.8029" lon="0.40903">
        <ele>964</ele>
        <time>2015-08-15T07:06:43Z</time>
      </trkpt>
      <trkpt lat="42.80268" lon="0.4093">
        <ele>965</ele>
        <time>2015-08-15T07:06:54Z</time>
      </trkpt>
      <trkpt lat="42.80242" lon="0.40938">
        <ele>966</ele>
        <time>2015-08-15T07:07:04Z</time>
      </trkpt>
      <trkpt lat="42.80215" lon="0.40941">
        <ele>966</ele>
        <time>2015-08-15T07:07:14Z</time>
      </trkpt>
      <trkpt lat="42.80189" lon="0.4094">
        <ele>966</ele>
        <time>2015-08-15T07:07:24Z</time>
      </trkpt>
      <trkpt lat="42.80161" lon="0.40934">
        <ele>966</ele>
        <time>2015-08-15T07:07:35Z</time>
      </trkpt>
      <trkpt lat="42.80151" lon="0.40966">
        <ele>967</ele>
        <time>2015-08-15T07:07:46Z</time>
      </trkpt>
      <trkpt lat="42.80177" lon="0.40982">
        <ele>966</ele>
        <time>2015-08-15T07:07:57Z</time>
      </trkpt>
      <trkpt lat="42.80203" lon="0.40993">
        <ele>965</ele>
        <time>2015-08-15T07:08:07Z</time>
      </trkpt>
      <trkpt lat="42.80229" lon="0.41003">
        <ele>965</ele>
        <time>2015-08-15T07:08:17Z</time>
      </trkpt>
      <trkpt lat="42.8026" lon="0.41012">
        <ele>964</ele>
        <time>2015-08-15T07:08:28Z</time>
      </trkpt>
      <trkpt lat="42.80285" lon="0.41023">
        <ele>964</ele>
        <time>2015-08-15T07:08:38Z</time>
      </trkpt>
      <trkpt lat="42.80284" lon="0.41061">
        <ele>964</ele>
        <time>2015-08-15T07:08:49Z</time>
      </trkpt>
      <trkpt lat="42.80283" lon="0.41098">
        <ele>965</ele>
        <time>2015-08-15T07:09:00Z</time>
      </trkpt>
      <trkpt lat="42.80305" lon="0.41111">
        <ele>964</ele>
        <time>2015-08-15T07:09:11Z</time>
      </trkpt>
      <trkpt lat="42.80335" lon="0.41117">
        <ele>965</ele>
        <time>2015-08-15T07:09:21Z</time>
      </trkpt>
      <trkpt lat="42.80364" lon="0.41128">
        <ele>965</ele>
        <time>2015-08-15T07:09:32Z</time>
      </trkpt>
      <trkpt lat="42.80392" lon="0.41127">
        <ele>965</ele>
        <time>2015-08-15T07:09:42Z</time>
      </trkpt>
      <trkpt lat="42.80419" lon="0.41123">
        <ele>965</ele>
        <time>2015-08-15T07:09:52Z</time>
      </trkpt>
      <trkpt lat="42.80445" lon="0.41111">
        <ele>965</ele>
        <time>2015-08-15T07:10:03Z</time>
      </trkpt>
      <trkpt lat="42.80475" lon="0.4111">
        <ele>964</ele>
        <time>2015-08-15T07:10:14Z</time>
      </trkpt>
      <trkpt lat="42.80503" lon="0.41112">
        <ele>964</ele>
        <time>2015-08-15T07:10:24Z</time>
      </trkpt>
      <trkpt lat="42.80529" lon="0.41095">
        <ele>964</ele>
        <time>2015-08-15T07:10:34Z</time>
      </trkpt>
      <trkpt lat="42.80557" lon="0.41074">
        <ele>964</ele>
        <time>2015-08-15T07:10:45Z</time>
      </trkpt>
      <trkpt lat="42.80585" lon="0.41065">
        <ele>964</ele>
        <time>2015-08-15T07:10:56Z</time>
      </trkpt>
      <trkpt lat="42.80616" lon="0.41057">
        <ele>965</ele>
        <time>2015-08-15T07:11:07Z</time>
      </trkpt>
      <trkpt lat="42.80641" lon="0.41046">
        <ele>964</ele>
        <time>2015-08-15T07:11:18Z</time>
      </trkpt>
      <trkpt lat="42.80674" lon="0.41052">
        <ele>964</ele>
        <time>2015-08-15T07:11:29Z</time>
      </trkpt>
      <trkpt lat="42.80702" lon="0.41051">
        <ele>965</ele>
        <time>2015-08-15T07:11:40Z</time>
      </trkpt>
      <trkpt lat="42.80729" lon="0.41038">
        <ele>964</ele>
        <time>2015-08-15T07:11:50Z</time>
      </trkpt>
      <trkpt lat="42.80758" lon="0.41026">
        <ele>964</ele>
        <time>2015-08-15T07:12:01Z</time>
      </trkpt>
      <trkpt lat="42.80787" lon="0.41022">
        <ele>965</ele>
        <time>2015-08-15T07:12:12Z</time>
      </trkpt>
      <trkpt lat="42.80811" lon="0.41011">
        <ele>964</ele>
        <time>2015-08-15T07:12:22Z</time>
      </trkpt>
      <trkpt lat="42.80834" lon="0.4099">
        <ele>964</ele>
        <time>2015-08-15T07:12:32Z</time>
      </trkpt>
      <trkpt lat="42.80858" lon="0.40965">
        <ele>963</ele>
        <time>2015-08-15T07:12:43Z</time>
      </trkpt>
      <trkpt lat="42.80886" lon="0.40957">
        <ele>963</ele>
        <time>2015-08-15T07:12:53Z</time>
      </trkpt>
      <trkpt lat="42.80917" lon="0.40946">
        <ele>964</ele>
        <time>2015-08-15T07:13:04Z</time>
      </trkpt>
      <trkpt lat="42.80942" lon="0.40932">
        <ele>963</ele>
        <time>2015-08-15T07:13:14Z</time>
      </trkpt>
      <trkpt lat="42.80966" lon="0.40905">
        <ele>963</ele>
        <time>2015-08-15T07:13:25Z</time>
      </trkpt>
      <trkpt lat="42.80982" lon="0.40878">
        <ele>965</ele>
        <time>2015-08-15T07:13:36Z</time>
      </trkpt>
      <trkpt lat="42.80983" lon="0.40851">
        <ele>967</ele>
        <time>2015-08-15T07:13:47Z</time>
      </trkpt>
      <trkpt lat="42.8097" lon="0.40826">
        <ele>968</ele>
        <time>2015-08-15T07:13:57Z</time>
      </trkpt>
      <trkpt lat="42.80958" lon="0.40808">
        <ele>969</ele>
        <time>2015-08-15T07:14:07Z</time>
      </trkpt>
      <trkpt lat="42.80952" lon="0.40793">
        <ele>972</ele>
        <time>2015-08-15T07:14:18Z</time>
      </trkpt>
      <trkpt lat="42.80957" lon="0.40776">
        <ele>975</ele>
        <time>2015-08-15T07:14:28Z</time>
      </trkpt>
      <trkpt lat="42.80956" lon="0.4077">
        <ele>976</ele>
        <time>2015-08-15T07:14:38Z</time>
      </trkpt>
      <trkpt lat="42.80943" lon="0.40756">
        <ele>978</ele>
        <time>2015-08-15T07:14:48Z</time>
      </trkpt>
      <trkpt lat="42.80929" lon="0.40751">
        <ele>980</ele>
        <time>2015-08-15T07:14:58Z</time>
      </trkpt>
      <trkpt lat="42.80912" lon="0.40747">
        <ele>983</ele>
        <time>2015-08-15T07:15:08Z</time>
      </trkpt>
      <trkpt lat="42.80895" lon="0.40741">
        <ele>983</ele>
        <time>2015-08-15T07:15:19Z</time>
      </trkpt>
      <trkpt lat="42.80897" lon="0.40705">
        <ele>982</ele>
        <time>2015-08-15T07:15:30Z</time>
      </trkpt>
      <trkpt lat="42.80894" lon="0.40683">
        <ele>984</ele>
        <time>2015-08-15T07:15:40Z</time>
      </trkpt>
      <trkpt lat="42.80903" lon="0.40677">
        <ele>987</ele>
        <time>2015-08-15T07:15:50Z</time>
      </trkpt>
      <trkpt lat="42.8091" lon="0.40668">
        <ele>990</ele>
        <time>2015-08-15T07:16:00Z</time>
      </trkpt>
      <trkpt lat="42.80912" lon="0.40656">
        <ele>993</ele>
        <time>2015-08-15T07:16:10Z</time>
      </trkpt>
      <trkpt lat="42.80917" lon="0.40647">
        <ele>996</ele>
        <time>2015-08-15T07:16:20Z</time>
      </trkpt>
      <trkpt lat="42.80924" lon="0.40637">
        <ele>999</ele>
        <time>2015-08-15T07:16:31Z</time>
      </trkpt>
      <trkpt lat="42.8092" lon="0.40626">
        <ele>1002</ele>
        <time>2015-08-15T07:16:41Z</time>
      </trkpt>
      <trkpt lat="42.80922" lon="0.40613">
        <ele>1005</ele>
        <time>2015-08-15T07:16:52Z</time>
      </trkpt>
      <trkpt lat="42.80924" lon="0.40598">
        <ele>1008</ele>
        <time>2015-08-15T07:17:02Z</time>
      </trkpt>
      <trkpt lat="42.80932" lon="0.40589">
        <ele>1009</ele>
        <time>2015-08-15T07:17:12Z</time>
      </trkpt>
      <trkpt lat="42.80933" lon="0.40577">
        <ele>1013</ele>
        <time>2015-08-15T07:17:23Z</time>
      </trkpt>
      <trkpt lat="42.80937" lon="0.40567">
        <ele>1013</ele>
        <time>2015-08-15T07:17:33Z</time>
      </trkpt>
      <trkpt lat="42.80943" lon="0.40555">
        <ele>1014</ele>
        <time>2015-08-15T07:17:44Z</time>
      </trkpt>
      <trkpt lat="42.80954" lon="0.40531">
        <ele>1012</ele>
        <time>2015-08-15T07:17:55Z</time>
      </trkpt>
      <trkpt lat="42.80938" lon="0.40508">
        <ele>1006</ele>
        <time>2015-08-15T07:18:05Z</time>
      </trkpt>
      <trkpt lat="42.8093" lon="0.40481">
        <ele>1004</ele>
        <time>2015-08-15T07:18:16Z</time>
      </trkpt>
      <trkpt lat="42.8094" lon="0.40459">
        <ele>1001</ele>
        <time>2015-08-15T07:18:27Z</time>
      </trkpt>
      <trkpt lat="42.80954" lon="0.40437">
        <ele>996</ele>
        <time>2015-08-15T07:18:38Z</time>
      </trkpt>
      <trkpt lat="42.80974" lon="0.40413">
        <ele>991</ele>
        <time>2015-08-15T07:18:49Z</time>
      </trkpt>
      <trkpt lat="42.80993" lon="0.40395">
        <ele>987</ele>
        <time>2015-08-15T07:18:59Z</time>
      </trkpt>
      <trkpt lat="42.81006" lon="0.4038">
        <ele>984</ele>
        <time>2015-08-15T07:19:10Z</time>
      </trkpt>
      <trkpt lat="42.81015" lon="0.40372">
        <ele>981</ele>
        <time>2015-08-15T07:19:20Z</time>
      </trkpt>
      <trkpt lat="42.81031" lon="0.40367">
        <ele>981</ele>
        <time>2015-08-15T07:19:30Z</time>
      </trkpt>
      <trkpt lat="42.81054" lon="0.40352">
        <ele>981</ele>
        <time>2015-08-15T07:19:40Z</time>
      </trkpt>
      <trkpt lat="42.81078" lon="0.40341">
        <ele>984</ele>
        <time>2015-08-15T07:19:51Z</time>
      </trkpt>
      <trkpt lat="42.81091" lon="0.4032">
        <ele>985</ele>
        <time>2015-08-15T07:20:01Z</time>
      </trkpt>
      <trkpt lat="42.81096" lon="0.40314">
        <ele>987</ele>
        <time>2015-08-15T07:20:11Z</time>
      </trkpt>
      <trkpt lat="42.81099" lon="0.40312">
        <ele>988</ele>
        <time>2015-08-15T07:20:22Z</time>
      </trkpt>
      <trkpt lat="42.81107" lon="0.40302">
        <ele>989</ele>
        <time>2015-08-15T07:20:32Z</time>
      </trkpt>
      <trkpt lat="42.81113" lon="0.40292">
        <ele>991</ele>
        <time>2015-08-15T07:20:42Z</time>
      </trkpt>
      <trkpt lat="42.81119" lon="0.40279">
        <ele>994</ele>
        <time>2015-08-15T07:20:52Z</time>
      </trkpt>
      <trkpt lat="42.81125" lon="0.40267">
        <ele>998</ele>
        <time>2015-08-15T07:21:03Z</time>
      </trkpt>
      <trkpt lat="42.81131" lon="0.40264">
        <ele>1002</ele>
        <time>2015-08-15T07:21:13Z</time>
      </trkpt>
      <trkpt lat="42.8113" lon="0.40279">
        <ele>1004</ele>
        <time>2015-08-15T07:21:24Z</time>
      </trkpt>
      <trkpt lat="42.81134" lon="0.40286">
        <ele>1008</ele>
        <time>2015-08-15T07:21:34Z</time>
      </trkpt>
      <trkpt lat="42.81143" lon="0.40288">
        <ele>1011</ele>
        <time>2015-08-15T07:21:45Z</time>
      </trkpt>
      <trkpt lat="42.8115" lon="0.40282">
        <ele>1014</ele>
        <time>2015-08-15T07:21:56Z</time>
      </trkpt>
      <trkpt lat="42.81155" lon="0.40271">
        <ele>1017</ele>
        <time>2015-08-15T07:22:06Z</time>
      </trkpt>
      <trkpt lat="42.81166" lon="0.40251">
        <ele>1018</ele>
        <time>2015-08-15T07:22:17Z</time>
      </trkpt>
      <trkpt lat="42.81178" lon="0.40241">
        <ele>1019</ele>
        <time>2015-08-15T07:22:28Z</time>
      </trkpt>
      <trkpt lat="42.81185" lon="0.4023">
        <ele>1022</ele>
        <time>2015-08-15T07:22:39Z</time>
      </trkpt>
      <trkpt lat="42.81195" lon="0.40228">
        <ele>1025</ele>
        <time>2015-08-15T07:22:50Z</time>
      </trkpt>
      <trkpt lat="42.81211" lon="0.40222">
        <ele>1027</ele>
        <time>2015-08-15T07:23:00Z</time>
      </trkpt>
      <trkpt lat="42.81225" lon="0.40239">
        <ele>1028</ele>
        <time>2015-08-15T07:23:11Z</time>
      </trkpt>
      <trkpt lat="42.81243" lon="0.40249">
        <ele>1029</ele>
        <time>2015-08-15T07:23:22Z</time>
      </trkpt>
      <trkpt lat="42.81253" lon="0.40231">
        <ele>1029</ele>
        <time>2015-08-15T07:23:32Z</time>
      </trkpt>
      <trkpt lat="42.8126" lon="0.40213">
        <ele>1031</ele>
        <time>2015-08-15T07:23:43Z</time>
      </trkpt>
      <trkpt lat="42.81273" lon="0.40202">
        <ele>1033</ele>
        <time>2015-08-15T07:23:53Z</time>
      </trkpt>
      <trkpt lat="42.81294" lon="0.40193">
        <ele>1036</ele>
        <time>2015-08-15T07:24:04Z</time>
      </trkpt>
      <trkpt lat="42.81312" lon="0.40189">
        <ele>1035</ele>
        <time>2015-08-15T07:24:14Z</time>
      </trkpt>
      <trkpt lat="42.81329" lon="0.40182">
        <ele>1036</ele>
        <time>2015-08-15T07:24:25Z</time>
      </trkpt>
      <trkpt lat="42.81344" lon="0.40174">
        <ele>1039</ele>
        <time>2015-08-15T07:24:36Z</time>
      </trkpt>
      <trkpt lat="42.81354" lon="0.40171">
        <ele>1041</ele>
        <time>2015-08-15T07:24:46Z</time>
      </trkpt>
      <trkpt lat="42.81368" lon="0.40164">
        <ele>1042</ele>
        <time>2015-08-15T07:24:57Z</time>
      </trkpt>
      <trkpt lat="42.81372" lon="0.40154">
        <ele>1045</ele>
        <time>2015-08-15T07:25:07Z</time>
      </trkpt>
      <trkpt lat="42.81372" lon="0.40135">
        <ele>1047</ele>
        <time>2015-08-15T07:25:18Z</time>
      </trkpt>
      <trkpt lat="42.81369" lon="0.40116">
        <ele>1049</ele>
        <time>2015-08-15T07:25:28Z</time>
      </trkpt>
      <trkpt lat="42.8137" lon="0.40093">
        <ele>1051</ele>
        <time>2015-08-15T07:25:39Z</time>
      </trkpt>
      <trkpt lat="42.81373" lon="0.40075">
        <ele>1054</ele>
        <time>2015-08-15T07:25:49Z</time>
      </trkpt>
      <trkpt lat="42.81366" lon="0.40057">
        <ele>1057</ele>
        <time>2015-08-15T07:26:00Z</time>
      </trkpt>
      <trkpt lat="42.8136" lon="0.40042">
        <ele>1059</ele>
        <time>2015-08-15T07:26:10Z</time>
      </trkpt>
      <trkpt lat="42.8135" lon="0.40031">
        <ele>1061</ele>
        <time>2015-08-15T07:26:21Z</time>
      </trkpt>
      <trkpt lat="42.81339" lon="0.40018">
        <ele>1064</ele>
        <time>2015-08-15T07:26:32Z</time>
      </trkpt>
      <trkpt lat="42.81327" lon="0.40004">
        <ele>1066</ele>
        <time>2015-08-15T07:26:42Z</time>
      </trkpt>
      <trkpt lat="42.81315" lon="0.39993">
        <ele>1069</ele>
        <time>2015-08-15T07:26:53Z</time>
      </trkpt>
      <trkpt lat="42.81306" lon="0.3998">
        <ele>1073</ele>
        <time>2015-08-15T07:27:04Z</time>
      </trkpt>
      <trkpt lat="42.81296" lon="0.39969">
        <ele>1075</ele>
        <time>2015-08-15T07:27:15Z</time>
      </trkpt>
      <trkpt lat="42.81288" lon="0.39958">
        <ele>1079</ele>
        <time>2015-08-15T07:27:25Z</time>
      </trkpt>
      <trkpt lat="42.81277" lon="0.39946">
        <ele>1081</ele>
        <time>2015-08-15T07:27:36Z</time>
      </trkpt>
      <trkpt lat="42.8127" lon="0.39933">
        <ele>1084</ele>
        <time>2015-08-15T07:27:47Z</time>
      </trkpt>
      <trkpt lat="42.81258" lon="0.39925">
        <ele>1086</ele>
        <time>2015-08-15T07:27:58Z</time>
      </trkpt>
      <trkpt lat="42.81249" lon="0.39911">
        <ele>1088</ele>
        <time>2015-08-15T07:28:09Z</time>
      </trkpt>
      <trkpt lat="42.81236" lon="0.39895">
        <ele>1090</ele>
        <time>2015-08-15T07:28:19Z</time>
      </trkpt>
      <trkpt lat="42.81221" lon="0.3988">
        <ele>1092</ele>
        <time>2015-08-15T07:28:30Z</time>
      </trkpt>
      <trkpt lat="42.81207" lon="0.39868">
        <ele>1094</ele>
        <time>2015-08-15T07:28:41Z</time>
      </trkpt>
      <trkpt lat="42.81195" lon="0.39861">
        <ele>1097</ele>
        <time>2015-08-15T07:28:51Z</time>
      </trkpt>
      <trkpt lat="42.81186" lon="0.39846">
        <ele>1099</ele>
        <time>2015-08-15T07:29:02Z</time>
      </trkpt>
      <trkpt lat="42.81191" lon="0.3984">
        <ele>1102</ele>
        <time>2015-08-15T07:29:12Z</time>
      </trkpt>
      <trkpt lat="42.81198" lon="0.39833">
        <ele>1104</ele>
        <time>2015-08-15T07:29:22Z</time>
      </trkpt>
      <trkpt lat="42.81208" lon="0.39836">
        <ele>1107</ele>
        <time>2015-08-15T07:29:33Z</time>
      </trkpt>
      <trkpt lat="42.81218" lon="0.39838">
        <ele>1110</ele>
        <time>2015-08-15T07:29:44Z</time>
      </trkpt>
      <trkpt lat="42.81229" lon="0.39837">
        <ele>1112</ele>
        <time>2015-08-15T07:29:54Z</time>
      </trkpt>
      <trkpt lat="42.81239" lon="0.39833">
        <ele>1115</ele>
        <time>2015-08-15T07:30:05Z</time>
      </trkpt>
      <trkpt lat="42.81234" lon="0.39827">
        <ele>1118</ele>
        <time>2015-08-15T07:30:15Z</time>
      </trkpt>
      <trkpt lat="42.81227" lon="0.39824">
        <ele>1120</ele>
        <time>2015-08-15T07:30:25Z</time>
      </trkpt>
      <trkpt lat="42.81216" lon="0.39824">
        <ele>1122</ele>
        <time>2015-08-15T07:30:36Z</time>
      </trkpt>
      <trkpt lat="42.81205" lon="0.39818">
        <ele>1124</ele>
        <time>2015-08-15T07:30:46Z</time>
      </trkpt>
      <trkpt lat="42.81194" lon="0.39808">
        <ele>1126</ele>
        <time>2015-08-15T07:30:57Z</time>
      </trkpt>
      <trkpt lat="42.81182" lon="0.39798">
        <ele>1129</ele>
        <time>2015-08-15T07:31:08Z</time>
      </trkpt>
      <trkpt lat="42.81172" lon="0.39781">
        <ele>1131</ele>
        <time>2015-08-15T07:31:18Z</time>
      </trkpt>
      <trkpt lat="42.81162" lon="0.39765">
        <ele>1133</ele>
        <time>2015-08-15T07:31:28Z</time>
      </trkpt>
      <trkpt lat="42.81151" lon="0.39755">
        <ele>1135</ele>
        <time>2015-08-15T07:31:39Z</time>
      </trkpt>
      <trkpt lat="42.81139" lon="0.39744">
        <ele>1138</ele>
        <time>2015-08-15T07:31:50Z</time>
      </trkpt>
      <trkpt lat="42.81129" lon="0.39738">
        <ele>1140</ele>
        <time>2015-08-15T07:32:00Z</time>
      </trkpt>
      <trkpt lat="42.81115" lon="0.39732">
        <ele>1143</ele>
        <time>2015-08-15T07:32:11Z</time>
      </trkpt>
      <trkpt lat="42.81103" lon="0.39726">
        <ele>1145</ele>
        <time>2015-08-15T07:32:21Z</time>
      </trkpt>
      <trkpt lat="42.81093" lon="0.39711">
        <ele>1147</ele>
        <time>2015-08-15T07:32:31Z</time>
      </trkpt>
      <trkpt lat="42.81081" lon="0.39696">
        <ele>1150</ele>
        <time>2015-08-15T07:32:42Z</time>
      </trkpt>
      <trkpt lat="42.81071" lon="0.39683">
        <ele>1152</ele>
        <time>2015-08-15T07:32:52Z</time>
      </trkpt>
      <trkpt lat="42.81061" lon="0.39668">
        <ele>1153</ele>
        <time>2015-08-15T07:33:03Z</time>
      </trkpt>
      <trkpt lat="42.81051" lon="0.39658">
        <ele>1156</ele>
        <time>2015-08-15T07:33:13Z</time>
      </trkpt>
      <trkpt lat="42.8104" lon="0.39647">
        <ele>1158</ele>
        <time>2015-08-15T07:33:24Z</time>
      </trkpt>
      <trkpt lat="42.81028" lon="0.39634">
        <ele>1161</ele>
        <time>2015-08-15T07:33:35Z</time>
      </trkpt>
      <trkpt lat="42.81019" lon="0.39622">
        <ele>1164</ele>
        <time>2015-08-15T07:33:45Z</time>
      </trkpt>
      <trkpt lat="42.81012" lon="0.39608">
        <ele>1166</ele>
        <time>2015-08-15T07:33:56Z</time>
      </trkpt>
      <trkpt lat="42.81017" lon="0.39603">
        <ele>1169</ele>
        <time>2015-08-15T07:34:07Z</time>
      </trkpt>
      <trkpt lat="42.81024" lon="0.39608">
        <ele>1171</ele>
        <time>2015-08-15T07:34:18Z</time>
      </trkpt>
      <trkpt lat="42.81035" lon="0.39611">
        <ele>1173</ele>
        <time>2015-08-15T07:34:29Z</time>
      </trkpt>
      <trkpt lat="42.81045" lon="0.39615">
        <ele>1175</ele>
        <time>2015-08-15T07:34:39Z</time>
      </trkpt>
      <trkpt lat="42.81058" lon="0.39625">
        <ele>1177</ele>
        <time>2015-08-15T07:34:50Z</time>
      </trkpt>
      <trkpt lat="42.8107" lon="0.39625">
        <ele>1179</ele>
        <time>2015-08-15T07:35:00Z</time>
      </trkpt>
      <trkpt lat="42.81084" lon="0.39632">
        <ele>1181</ele>
        <time>2015-08-15T07:35:10Z</time>
      </trkpt>
      <trkpt lat="42.81099" lon="0.39636">
        <ele>1183</ele>
        <time>2015-08-15T07:35:21Z</time>
      </trkpt>
      <trkpt lat="42.81111" lon="0.39637">
        <ele>1185</ele>
        <time>2015-08-15T07:35:31Z</time>
      </trkpt>
      <trkpt lat="42.81121" lon="0.39649">
        <ele>1186</ele>
        <time>2015-08-15T07:35:42Z</time>
      </trkpt>
      <trkpt lat="42.81134" lon="0.39661">
        <ele>1188</ele>
        <time>2015-08-15T07:35:53Z</time>
      </trkpt>
      <trkpt lat="42.81147" lon="0.39661">
        <ele>1190</ele>
        <time>2015-08-15T07:36:04Z</time>
      </trkpt>
      <trkpt lat="42.8116" lon="0.39666">
        <ele>1193</ele>
        <time>2015-08-15T07:36:14Z</time>
      </trkpt>
      <trkpt lat="42.81176" lon="0.39665">
        <ele>1195</ele>
        <time>2015-08-15T07:36:25Z</time>
      </trkpt>
      <trkpt lat="42.81187" lon="0.39671">
        <ele>1197</ele>
        <time>2015-08-15T07:36:36Z</time>
      </trkpt>
      <trkpt lat="42.81197" lon="0.39683">
        <ele>1199</ele>
        <time>2015-08-15T07:36:46Z</time>
      </trkpt>
      <trkpt lat="42.8121" lon="0.39689">
        <ele>1201</ele>
        <time>2015-08-15T07:36:57Z</time>
      </trkpt>
      <trkpt lat="42.81223" lon="0.39691">
        <ele>1203</ele>
        <time>2015-08-15T07:37:08Z</time>
      </trkpt>
      <trkpt lat="42.81235" lon="0.39698">
        <ele>1205</ele>
        <time>2015-08-15T07:37:18Z</time>
      </trkpt>
      <trkpt lat="42.81246" lon="0.39695">
        <ele>1208</ele>
        <time>2015-08-15T07:37:28Z</time>
      </trkpt>
      <trkpt lat="42.81259" lon="0.39686">
        <ele>1210</ele>
        <time>2015-08-15T07:37:39Z</time>
      </trkpt>
      <trkpt lat="42.81264" lon="0.39683">
        <ele>1213</ele>
        <time>2015-08-15T07:37:50Z</time>
      </trkpt>
      <trkpt lat="42.81254" lon="0.3969">
        <ele>1216</ele>
        <time>2015-08-15T07:38:01Z</time>
      </trkpt>
      <trkpt lat="42.81246" lon="0.39686">
        <ele>1217</ele>
        <time>2015-08-15T07:38:11Z</time>
      </trkpt>
      <trkpt lat="42.81237" lon="0.3968">
        <ele>1220</ele>
        <time>2015-08-15T07:38:22Z</time>
      </trkpt>
      <trkpt lat="42.81228" lon="0.39676">
        <ele>1221</ele>
        <time>2015-08-15T07:38:32Z</time>
      </trkpt>
      <trkpt lat="42.81221" lon="0.39658">
        <ele>1223</ele>
        <time>2015-08-15T07:38:43Z</time>
      </trkpt>
      <trkpt lat="42.81211" lon="0.3965">
        <ele>1226</ele>
        <time>2015-08-15T07:38:54Z</time>
      </trkpt>
      <trkpt lat="42.81197" lon="0.39641">
        <ele>1228</ele>
        <time>2015-08-15T07:39:05Z</time>
      </trkpt>
      <trkpt lat="42.81189" lon="0.39623">
        <ele>1231</ele>
        <time>2015-08-15T07:39:15Z</time>
      </trkpt>
      <trkpt lat="42.81179" lon="0.39608">
        <ele>1233</ele>
        <time>2015-08-15T07:39:26Z</time>
      </trkpt>
      <trkpt lat="42.81174" lon="0.39589">
        <ele>1235</ele>
        <time>2015-08-15T07:39:37Z</time>
      </trkpt>
      <trkpt lat="42.81163" lon="0.39588">
        <ele>1236</ele>
        <time>2015-08-15T07:39:47Z</time>
      </trkpt>
      <trkpt lat="42.81148" lon="0.39593">
        <ele>1237</ele>
        <time>2015-08-15T07:39:58Z</time>
      </trkpt>
      <trkpt lat="42.81139" lon="0.39585">
        <ele>1239</ele>
        <time>2015-08-15T07:40:08Z</time>
      </trkpt>
      <trkpt lat="42.81128" lon="0.39575">
        <ele>1241</ele>
        <time>2015-08-15T07:40:18Z</time>
      </trkpt>
      <trkpt lat="42.81116" lon="0.39568">
        <ele>1244</ele>
        <time>2015-08-15T07:40:28Z</time>
      </trkpt>
      <trkpt lat="42.81102" lon="0.3956">
        <ele>1247</ele>
        <time>2015-08-15T07:40:39Z</time>
      </trkpt>
      <trkpt lat="42.81098" lon="0.39544">
        <ele>1249</ele>
        <time>2015-08-15T07:40:50Z</time>
      </trkpt>
      <trkpt lat="42.81092" lon="0.39519">
        <ele>1251</ele>
        <time>2015-08-15T07:41:01Z</time>
      </trkpt>
      <trkpt lat="42.81091" lon="0.39497">
        <ele>1252</ele>
        <time>2015-08-15T07:41:11Z</time>
      </trkpt>
      <trkpt lat="42.81078" lon="0.39497">
        <ele>1252</ele>
        <time>2015-08-15T07:41:22Z</time>
      </trkpt>
      <trkpt lat="42.81064" lon="0.39498">
        <ele>1254</ele>
        <time>2015-08-15T07:41:33Z</time>
      </trkpt>
      <trkpt lat="42.81056" lon="0.39472">
        <ele>1255</ele>
        <time>2015-08-15T07:41:43Z</time>
      </trkpt>
      <trkpt lat="42.81042" lon="0.3945">
        <ele>1256</ele>
        <time>2015-08-15T07:41:53Z</time>
      </trkpt>
      <trkpt lat="42.81025" lon="0.39452">
        <ele>1258</ele>
        <time>2015-08-15T07:42:04Z</time>
      </trkpt>
      <trkpt lat="42.81009" lon="0.39453">
        <ele>1259</ele>
        <time>2015-08-15T07:42:15Z</time>
      </trkpt>
      <trkpt lat="42.80995" lon="0.39456">
        <ele>1262</ele>
        <time>2015-08-15T07:42:26Z</time>
      </trkpt>
      <trkpt lat="42.80983" lon="0.39451">
        <ele>1264</ele>
        <time>2015-08-15T07:42:36Z</time>
      </trkpt>
      <trkpt lat="42.80974" lon="0.39434">
        <ele>1266</ele>
        <time>2015-08-15T07:42:47Z</time>
      </trkpt>
      <trkpt lat="42.80966" lon="0.39412">
        <ele>1268</ele>
        <time>2015-08-15T07:42:57Z</time>
      </trkpt>
      <trkpt lat="42.80954" lon="0.39398">
        <ele>1271</ele>
        <time>2015-08-15T07:43:08Z</time>
      </trkpt>
      <trkpt lat="42.80947" lon="0.39382">
        <ele>1273</ele>
        <time>2015-08-15T07:43:19Z</time>
      </trkpt>
      <trkpt lat="42.80945" lon="0.39364">
        <ele>1275</ele>
        <time>2015-08-15T07:43:30Z</time>
      </trkpt>
      <trkpt lat="42.8093" lon="0.39362">
        <ele>1278</ele>
        <time>2015-08-15T07:43:41Z</time>
      </trkpt>
      <trkpt lat="42.80914" lon="0.39373">
        <ele>1279</ele>
        <time>2015-08-15T07:43:51Z</time>
      </trkpt>
      <trkpt lat="42.80899" lon="0.39373">
        <ele>1281</ele>
        <time>2015-08-15T07:44:02Z</time>
      </trkpt>
      <trkpt lat="42.8089" lon="0.3935">
        <ele>1283</ele>
        <time>2015-08-15T07:44:12Z</time>
      </trkpt>
      <trkpt lat="42.80878" lon="0.39336">
        <ele>1285</ele>
        <time>2015-08-15T07:44:23Z</time>
      </trkpt>
      <trkpt lat="42.80866" lon="0.39327">
        <ele>1287</ele>
        <time>2015-08-15T07:44:34Z</time>
      </trkpt>
      <trkpt lat="42.80854" lon="0.3933">
        <ele>1290</ele>
        <time>2015-08-15T07:44:44Z</time>
      </trkpt>
      <trkpt lat="42.80848" lon="0.39334">
        <ele>1291</ele>
        <time>2015-08-15T07:44:55Z</time>
      </trkpt>
      <trkpt lat="42.80848" lon="0.39321">
        <ele>1293</ele>
        <time>2015-08-15T07:45:05Z</time>
      </trkpt>
      <trkpt lat="42.8085" lon="0.39307">
        <ele>1296</ele>
        <time>2015-08-15T07:45:15Z</time>
      </trkpt>
      <trkpt lat="42.80859" lon="0.39297">
        <ele>1296</ele>
        <time>2015-08-15T07:45:25Z</time>
      </trkpt>
      <trkpt lat="42.80857" lon="0.39292">
        <ele>1298</ele>
        <time>2015-08-15T07:45:35Z</time>
      </trkpt>
      <trkpt lat="42.80848" lon="0.39299">
        <ele>1300</ele>
        <time>2015-08-15T07:45:46Z</time>
      </trkpt>
      <trkpt lat="42.8084" lon="0.39306">
        <ele>1302</ele>
        <time>2015-08-15T07:45:56Z</time>
      </trkpt>
      <trkpt lat="42.80842" lon="0.39298">
        <ele>1304</ele>
        <time>2015-08-15T07:46:07Z</time>
      </trkpt>
      <trkpt lat="42.80849" lon="0.39288">
        <ele>1306</ele>
        <time>2015-08-15T07:46:18Z</time>
      </trkpt>
      <trkpt lat="42.80859" lon="0.39283">
        <ele>1308</ele>
        <time>2015-08-15T07:46:28Z</time>
      </trkpt>
      <trkpt lat="42.80857" lon="0.39276">
        <ele>1310</ele>
        <time>2015-08-15T07:46:38Z</time>
      </trkpt>
      <trkpt lat="42.80843" lon="0.39276">
        <ele>1311</ele>
        <time>2015-08-15T07:46:49Z</time>
      </trkpt>
      <trkpt lat="42.80845" lon="0.3927">
        <ele>1314</ele>
        <time>2015-08-15T07:47:00Z</time>
      </trkpt>
      <trkpt lat="42.80856" lon="0.39265">
        <ele>1316</ele>
        <time>2015-08-15T07:47:11Z</time>
      </trkpt>
      <trkpt lat="42.80869" lon="0.39268">
        <ele>1318</ele>
        <time>2015-08-15T07:47:22Z</time>
      </trkpt>
      <trkpt lat="42.80878" lon="0.39271">
        <ele>1320</ele>
        <time>2015-08-15T07:47:32Z</time>
      </trkpt>
      <trkpt lat="42.80892" lon="0.39272">
        <ele>1322</ele>
        <time>2015-08-15T07:47:43Z</time>
      </trkpt>
      <trkpt lat="42.80905" lon="0.39275">
        <ele>1324</ele>
        <time>2015-08-15T07:47:53Z</time>
      </trkpt>
      <trkpt lat="42.8092" lon="0.39273">
        <ele>1326</ele>
        <time>2015-08-15T07:48:04Z</time>
      </trkpt>
      <trkpt lat="42.80932" lon="0.39273">
        <ele>1329</ele>
        <time>2015-08-15T07:48:15Z</time>
      </trkpt>
      <trkpt lat="42.80945" lon="0.39287">
        <ele>1331</ele>
        <time>2015-08-15T07:48:25Z</time>
      </trkpt>
      <trkpt lat="42.80961" lon="0.3929">
        <ele>1332</ele>
        <time>2015-08-15T07:48:36Z</time>
      </trkpt>
      <trkpt lat="42.80979" lon="0.39294">
        <ele>1334</ele>
        <time>2015-08-15T07:48:47Z</time>
      </trkpt>
      <trkpt lat="42.80993" lon="0.39297">
        <ele>1337</ele>
        <time>2015-08-15T07:48:58Z</time>
      </trkpt>
      <trkpt lat="42.81005" lon="0.39305">
        <ele>1339</ele>
        <time>2015-08-15T07:49:08Z</time>
      </trkpt>
      <trkpt lat="42.81016" lon="0.39309">
        <ele>1340</ele>
        <time>2015-08-15T07:49:18Z</time>
      </trkpt>
      <trkpt lat="42.81028" lon="0.39316">
        <ele>1343</ele>
        <time>2015-08-15T07:49:29Z</time>
      </trkpt>
      <trkpt lat="42.81045" lon="0.39327">
        <ele>1345</ele>
        <time>2015-08-15T07:49:40Z</time>
      </trkpt>
      <trkpt lat="42.81058" lon="0.39333">
        <ele>1347</ele>
        <time>2015-08-15T07:49:51Z</time>
      </trkpt>
      <trkpt lat="42.81071" lon="0.39346">
        <ele>1349</ele>
        <time>2015-08-15T07:50:02Z</time>
      </trkpt>
      <trkpt lat="42.81081" lon="0.39361">
        <ele>1351</ele>
        <time>2015-08-15T07:50:12Z</time>
      </trkpt>
      <trkpt lat="42.81097" lon="0.39362">
        <ele>1354</ele>
        <time>2015-08-15T07:50:23Z</time>
      </trkpt>
      <trkpt lat="42.81112" lon="0.39369">
        <ele>1355</ele>
        <time>2015-08-15T07:50:33Z</time>
      </trkpt>
      <trkpt lat="42.81125" lon="0.39366">
        <ele>1357</ele>
        <time>2015-08-15T07:50:43Z</time>
      </trkpt>
      <trkpt lat="42.81139" lon="0.39377">
        <ele>1358</ele>
        <time>2015-08-15T07:50:54Z</time>
      </trkpt>
      <trkpt lat="42.81155" lon="0.39394">
        <ele>1360</ele>
        <time>2015-08-15T07:51:04Z</time>
      </trkpt>
      <trkpt lat="42.8117" lon="0.39409">
        <ele>1362</ele>
        <time>2015-08-15T07:51:15Z</time>
      </trkpt>
      <trkpt lat="42.81183" lon="0.39404">
        <ele>1364</ele>
        <time>2015-08-15T07:51:26Z</time>
      </trkpt>
      <trkpt lat="42.81196" lon="0.3941">
        <ele>1366</ele>
        <time>2015-08-15T07:51:37Z</time>
      </trkpt>
      <trkpt lat="42.81212" lon="0.39421">
        <ele>1367</ele>
        <time>2015-08-15T07:51:48Z</time>
      </trkpt>
      <trkpt lat="42.8123" lon="0.39429">
        <ele>1370</ele>
        <time>2015-08-15T07:51:59Z</time>
      </trkpt>
      <trkpt lat="42.81242" lon="0.39442">
        <ele>1372</ele>
        <time>2015-08-15T07:52:09Z</time>
      </trkpt>
      <trkpt lat="42.81256" lon="0.39457">
        <ele>1374</ele>
        <time>2015-08-15T07:52:20Z</time>
      </trkpt>
      <trkpt lat="42.81271" lon="0.3945">
        <ele>1376</ele>
        <time>2015-08-15T07:52:31Z</time>
      </trkpt>
      <trkpt lat="42.81284" lon="0.39442">
        <ele>1378</ele>
        <time>2015-08-15T07:52:41Z</time>
      </trkpt>
      <trkpt lat="42.81292" lon="0.39437">
        <ele>1379</ele>
        <time>2015-08-15T07:52:52Z</time>
      </trkpt>
      <trkpt lat="42.81302" lon="0.39428">
        <ele>1381</ele>
        <time>2015-08-15T07:53:03Z</time>
      </trkpt>
      <trkpt lat="42.81311" lon="0.39419">
        <ele>1384</ele>
        <time>2015-08-15T07:53:14Z</time>
      </trkpt>
      <trkpt lat="42.8132" lon="0.39413">
        <ele>1385</ele>
        <time>2015-08-15T07:53:24Z</time>
      </trkpt>
      <trkpt lat="42.8133" lon="0.39408">
        <ele>1386</ele>
        <time>2015-08-15T07:53:34Z</time>
      </trkpt>
      <trkpt lat="42.81345" lon="0.39404">
        <ele>1388</ele>
        <time>2015-08-15T07:53:45Z</time>
      </trkpt>
      <trkpt lat="42.81342" lon="0.39394">
        <ele>1391</ele>
        <time>2015-08-15T07:53:56Z</time>
      </trkpt>
      <trkpt lat="42.81343" lon="0.39381">
        <ele>1393</ele>
        <time>2015-08-15T07:54:06Z</time>
      </trkpt>
      <trkpt lat="42.81338" lon="0.39383">
        <ele>1395</ele>
        <time>2015-08-15T07:54:16Z</time>
      </trkpt>
      <trkpt lat="42.81334" lon="0.39388">
        <ele>1396</ele>
        <time>2015-08-15T07:54:26Z</time>
      </trkpt>
      <trkpt lat="42.8132" lon="0.39388">
        <ele>1397</ele>
        <time>2015-08-15T07:54:36Z</time>
      </trkpt>
      <trkpt lat="42.81303" lon="0.3939">
        <ele>1399</ele>
        <time>2015-08-15T07:54:47Z</time>
      </trkpt>
      <trkpt lat="42.8129" lon="0.394">
        <ele>1401</ele>
        <time>2015-08-15T07:54:57Z</time>
      </trkpt>
      <trkpt lat="42.81281" lon="0.39395">
        <ele>1402</ele>
        <time>2015-08-15T07:55:07Z</time>
      </trkpt>
      <trkpt lat="42.81273" lon="0.3938">
        <ele>1405</ele>
        <time>2015-08-15T07:55:17Z</time>
      </trkpt>
      <trkpt lat="42.81267" lon="0.39364">
        <ele>1407</ele>
        <time>2015-08-15T07:55:27Z</time>
      </trkpt>
      <trkpt lat="42.81251" lon="0.39355">
        <ele>1409</ele>
        <time>2015-08-15T07:55:37Z</time>
      </trkpt>
      <trkpt lat="42.81234" lon="0.39362">
        <ele>1411</ele>
        <time>2015-08-15T07:55:47Z</time>
      </trkpt>
      <trkpt lat="42.81218" lon="0.39364">
        <ele>1414</ele>
        <time>2015-08-15T07:55:58Z</time>
      </trkpt>
      <trkpt lat="42.81206" lon="0.39349">
        <ele>1415</ele>
        <time>2015-08-15T07:56:08Z</time>
      </trkpt>
      <trkpt lat="42.8119" lon="0.39333">
        <ele>1417</ele>
        <time>2015-08-15T07:56:18Z</time>
      </trkpt>
      <trkpt lat="42.81184" lon="0.39309">
        <ele>1419</ele>
        <time>2015-08-15T07:56:28Z</time>
      </trkpt>
      <trkpt lat="42.81168" lon="0.39294">
        <ele>1422</ele>
        <time>2015-08-15T07:56:39Z</time>
      </trkpt>
      <trkpt lat="42.81156" lon="0.39281">
        <ele>1424</ele>
        <time>2015-08-15T07:56:50Z</time>
      </trkpt>
      <trkpt lat="42.8115" lon="0.39261">
        <ele>1425</ele>
        <time>2015-08-15T07:57:01Z</time>
      </trkpt>
      <trkpt lat="42.81135" lon="0.39257">
        <ele>1428</ele>
        <time>2015-08-15T07:57:12Z</time>
      </trkpt>
      <trkpt lat="42.81123" lon="0.3924">
        <ele>1429</ele>
        <time>2015-08-15T07:57:23Z</time>
      </trkpt>
      <trkpt lat="42.81114" lon="0.39217">
        <ele>1432</ele>
        <time>2015-08-15T07:57:34Z</time>
      </trkpt>
      <trkpt lat="42.81101" lon="0.3921">
        <ele>1434</ele>
        <time>2015-08-15T07:57:44Z</time>
      </trkpt>
      <trkpt lat="42.81085" lon="0.39211">
        <ele>1436</ele>
        <time>2015-08-15T07:57:54Z</time>
      </trkpt>
      <trkpt lat="42.81073" lon="0.39194">
        <ele>1438</ele>
        <time>2015-08-15T07:58:05Z</time>
      </trkpt>
      <trkpt lat="42.81071" lon="0.39173">
        <ele>1440</ele>
        <time>2015-08-15T07:58:15Z</time>
      </trkpt>
      <trkpt lat="42.81063" lon="0.39157">
        <ele>1442</ele>
        <time>2015-08-15T07:58:26Z</time>
      </trkpt>
      <trkpt lat="42.8105" lon="0.39156">
        <ele>1443</ele>
        <time>2015-08-15T07:58:36Z</time>
      </trkpt>
      <trkpt lat="42.81036" lon="0.39153">
        <ele>1445</ele>
        <time>2015-08-15T07:58:46Z</time>
      </trkpt>
      <trkpt lat="42.81027" lon="0.39134">
        <ele>1448</ele>
        <time>2015-08-15T07:58:56Z</time>
      </trkpt>
      <trkpt lat="42.81025" lon="0.39107">
        <ele>1450</ele>
        <time>2015-08-15T07:59:07Z</time>
      </trkpt>
      <trkpt lat="42.81008" lon="0.39101">
        <ele>1451</ele>
        <time>2015-08-15T07:59:18Z</time>
      </trkpt>
      <trkpt lat="42.80999" lon="0.3909">
        <ele>1453</ele>
        <time>2015-08-15T07:59:29Z</time>
      </trkpt>
      <trkpt lat="42.81006" lon="0.39087">
        <ele>1457</ele>
        <time>2015-08-15T07:59:40Z</time>
      </trkpt>
      <trkpt lat="42.8101" lon="0.39086">
        <ele>1458</ele>
        <time>2015-08-15T07:59:50Z</time>
      </trkpt>
      <trkpt lat="42.81022" lon="0.39088">
        <ele>1459</ele>
        <time>2015-08-15T08:00:00Z</time>
      </trkpt>
      <trkpt lat="42.81035" lon="0.39093">
        <ele>1462</ele>
        <time>2015-08-15T08:00:10Z</time>
      </trkpt>
      <trkpt lat="42.81045" lon="0.39108">
        <ele>1463</ele>
        <time>2015-08-15T08:00:21Z</time>
      </trkpt>
      <trkpt lat="42.81057" lon="0.39108">
        <ele>1467</ele>
        <time>2015-08-15T08:00:32Z</time>
      </trkpt>
      <trkpt lat="42.81068" lon="0.39106">
        <ele>1469</ele>
        <time>2015-08-15T08:00:42Z</time>
      </trkpt>
      <trkpt lat="42.81079" lon="0.39108">
        <ele>1471</ele>
        <time>2015-08-15T08:00:53Z</time>
      </trkpt>
      <trkpt lat="42.81094" lon="0.39117">
        <ele>1472</ele>
        <time>2015-08-15T08:01:04Z</time>
      </trkpt>
      <trkpt lat="42.8111" lon="0.39136">
        <ele>1474</ele>
        <time>2015-08-15T08:01:15Z</time>
      </trkpt>
      <trkpt lat="42.81126" lon="0.3914">
        <ele>1475</ele>
        <time>2015-08-15T08:01:26Z</time>
      </trkpt>
      <trkpt lat="42.81138" lon="0.39148">
        <ele>1476</ele>
        <time>2015-08-15T08:01:37Z</time>
      </trkpt>
      <trkpt lat="42.81152" lon="0.39155">
        <ele>1478</ele>
        <time>2015-08-15T08:01:47Z</time>
      </trkpt>
      <trkpt lat="42.81167" lon="0.39161">
        <ele>1478</ele>
        <time>2015-08-15T08:01:58Z</time>
      </trkpt>
      <trkpt lat="42.81177" lon="0.39168">
        <ele>1482</ele>
        <time>2015-08-15T08:02:09Z</time>
      </trkpt>
      <trkpt lat="42.81188" lon="0.39174">
        <ele>1484</ele>
        <time>2015-08-15T08:02:20Z</time>
      </trkpt>
      <trkpt lat="42.812" lon="0.39179">
        <ele>1487</ele>
        <time>2015-08-15T08:02:31Z</time>
      </trkpt>
      <trkpt lat="42.81211" lon="0.39187">
        <ele>1489</ele>
        <time>2015-08-15T08:02:42Z</time>
      </trkpt>
      <trkpt lat="42.8122" lon="0.39195">
        <ele>1491</ele>
        <time>2015-08-15T08:02:52Z</time>
      </trkpt>
      <trkpt lat="42.81229" lon="0.39196">
        <ele>1494</ele>
        <time>2015-08-15T08:03:02Z</time>
      </trkpt>
      <trkpt lat="42.81237" lon="0.39197">
        <ele>1497</ele>
        <time>2015-08-15T08:03:12Z</time>
      </trkpt>
      <trkpt lat="42.81249" lon="0.39198">
        <ele>1500</ele>
        <time>2015-08-15T08:03:23Z</time>
      </trkpt>
      <trkpt lat="42.81252" lon="0.39202">
        <ele>1502</ele>
        <time>2015-08-15T08:03:33Z</time>
      </trkpt>
      <trkpt lat="42.81258" lon="0.39198">
        <ele>1505</ele>
        <time>2015-08-15T08:03:44Z</time>
      </trkpt>
      <trkpt lat="42.81269" lon="0.39197">
        <ele>1508</ele>
        <time>2015-08-15T08:03:54Z</time>
      </trkpt>
      <trkpt lat="42.8128" lon="0.39193">
        <ele>1511</ele>
        <time>2015-08-15T08:04:05Z</time>
      </trkpt>
      <trkpt lat="42.81291" lon="0.39191">
        <ele>1510</ele>
        <time>2015-08-15T08:04:15Z</time>
      </trkpt>
      <trkpt lat="42.81303" lon="0.39197">
        <ele>1505</ele>
        <time>2015-08-15T08:04:26Z</time>
      </trkpt>
      <trkpt lat="42.81314" lon="0.39199">
        <ele>1502</ele>
        <time>2015-08-15T08:04:37Z</time>
      </trkpt>
      <trkpt lat="42.81322" lon="0.39203">
        <ele>1500</ele>
        <time>2015-08-15T08:04:47Z</time>
      </trkpt>
      <trkpt lat="42.81338" lon="0.39209">
        <ele>1500</ele>
        <time>2015-08-15T08:04:57Z</time>
      </trkpt>
      <trkpt lat="42.81355" lon="0.39219">
        <ele>1499</ele>
        <time>2015-08-15T08:05:08Z</time>
      </trkpt>
      <trkpt lat="42.81371" lon="0.39226">
        <ele>1498</ele>
        <time>2015-08-15T08:05:19Z</time>
      </trkpt>
      <trkpt lat="42.81385" lon="0.39232">
        <ele>1500</ele>
        <time>2015-08-15T08:05:30Z</time>
      </trkpt>
      <trkpt lat="42.81398" lon="0.39232">
        <ele>1502</ele>
        <time>2015-08-15T08:05:40Z</time>
      </trkpt>
      <trkpt lat="42.81407" lon="0.39235">
        <ele>1504</ele>
        <time>2015-08-15T08:05:50Z</time>
      </trkpt>
      <trkpt lat="42.81415" lon="0.39238">
        <ele>1507</ele>
        <time>2015-08-15T08:06:00Z</time>
      </trkpt>
      <trkpt lat="42.81425" lon="0.39236">
        <ele>1510</ele>
        <time>2015-08-15T08:06:11Z</time>
      </trkpt>
      <trkpt lat="42.81432" lon="0.39226">
        <ele>1512</ele>
        <time>2015-08-15T08:06:22Z</time>
      </trkpt>
      <trkpt lat="42.81436" lon="0.39216">
        <ele>1515</ele>
        <time>2015-08-15T08:06:32Z</time>
      </trkpt>
      <trkpt lat="42.81438" lon="0.39206">
        <ele>1517</ele>
        <time>2015-08-15T08:06:42Z</time>
      </trkpt>
      <trkpt lat="42.81443" lon="0.39193">
        <ele>1520</ele>
        <time>2015-08-15T08:06:52Z</time>
      </trkpt>
      <trkpt lat="42.81446" lon="0.39179">
        <ele>1522</ele>
        <time>2015-08-15T08:07:02Z</time>
      </trkpt>
      <trkpt lat="42.81446" lon="0.39169">
        <ele>1525</ele>
        <time>2015-08-15T08:07:12Z</time>
      </trkpt>
      <trkpt lat="42.81445" lon="0.39159">
        <ele>1527</ele>
        <time>2015-08-15T08:07:22Z</time>
      </trkpt>
      <trkpt lat="42.8144" lon="0.3915">
        <ele>1531</ele>
        <time>2015-08-15T08:07:33Z</time>
      </trkpt>
      <trkpt lat="42.81439" lon="0.39139">
        <ele>1533</ele>
        <time>2015-08-15T08:07:44Z</time>
      </trkpt>
      <trkpt lat="42.81434" lon="0.39131">
        <ele>1536</ele>
        <time>2015-08-15T08:07:54Z</time>
      </trkpt>
      <trkpt lat="42.81432" lon="0.3912">
        <ele>1538</ele>
        <time>2015-08-15T08:08:04Z</time>
      </trkpt>
      <trkpt lat="42.81429" lon="0.39108">
        <ele>1541</ele>
        <time>2015-08-15T08:08:15Z</time>
      </trkpt>
      <trkpt lat="42.81423" lon="0.39102">
        <ele>1544</ele>
        <time>2015-08-15T08:08:25Z</time>
      </trkpt>
      <trkpt lat="42.81419" lon="0.39095">
        <ele>1546</ele>
        <time>2015-08-15T08:08:36Z</time>
      </trkpt>
      <trkpt lat="42.81415" lon="0.39088">
        <ele>1550</ele>
        <time>2015-08-15T08:08:46Z</time>
      </trkpt>
      <trkpt lat="42.81413" lon="0.39079">
        <ele>1553</ele>
        <time>2015-08-15T08:08:57Z</time>
      </trkpt>
      <trkpt lat="42.81411" lon="0.3907">
        <ele>1556</ele>
        <time>2015-08-15T08:09:08Z</time>
      </trkpt>
      <trkpt lat="42.81408" lon="0.39059">
        <ele>1558</ele>
        <time>2015-08-15T08:09:18Z</time>
      </trkpt>
      <trkpt lat="42.81405" lon="0.39048">
        <ele>1560</ele>
        <time>2015-08-15T08:09:29Z</time>
      </trkpt>
      <trkpt lat="42.81398" lon="0.39037">
        <ele>1563</ele>
        <time>2015-08-15T08:09:40Z</time>
      </trkpt>
      <trkpt lat="42.81392" lon="0.39024">
        <ele>1565</ele>
        <time>2015-08-15T08:09:50Z</time>
      </trkpt>
      <trkpt lat="42.81386" lon="0.39013">
        <ele>1568</ele>
        <time>2015-08-15T08:10:00Z</time>
      </trkpt>
      <trkpt lat="42.81381" lon="0.39002">
        <ele>1571</ele>
        <time>2015-08-15T08:10:10Z</time>
      </trkpt>
      <trkpt lat="42.81376" lon="0.3899">
        <ele>1573</ele>
        <time>2015-08-15T08:10:20Z</time>
      </trkpt>
      <trkpt lat="42.81372" lon="0.38976">
        <ele>1576</ele>
        <time>2015-08-15T08:10:30Z</time>
      </trkpt>
      <trkpt lat="42.81363" lon="0.38969">
        <ele>1578</ele>
        <time>2015-08-15T08:10:41Z</time>
      </trkpt>
      <trkpt lat="42.81353" lon="0.38963">
        <ele>1580</ele>
        <time>2015-08-15T08:10:52Z</time>
      </trkpt>
      <trkpt lat="42.81346" lon="0.38957">
        <ele>1583</ele>
        <time>2015-08-15T08:11:03Z</time>
      </trkpt>
      <trkpt lat="42.81339" lon="0.38952">
        <ele>1585</ele>
        <time>2015-08-15T08:11:13Z</time>
      </trkpt>
      <trkpt lat="42.81332" lon="0.38946">
        <ele>1589</ele>
        <time>2015-08-15T08:11:24Z</time>
      </trkpt>
      <trkpt lat="42.81325" lon="0.38939">
        <ele>1591</ele>
        <time>2015-08-15T08:11:35Z</time>
      </trkpt>
      <trkpt lat="42.81318" lon="0.38931">
        <ele>1594</ele>
        <time>2015-08-15T08:11:46Z</time>
      </trkpt>
      <trkpt lat="42.81312" lon="0.38924">
        <ele>1597</ele>
        <time>2015-08-15T08:11:56Z</time>
      </trkpt>
      <trkpt lat="42.81305" lon="0.38916">
        <ele>1599</ele>
        <time>2015-08-15T08:12:07Z</time>
      </trkpt>
      <trkpt lat="42.81298" lon="0.38907">
        <ele>1602</ele>
        <time>2015-08-15T08:12:17Z</time>
      </trkpt>
      <trkpt lat="42.81292" lon="0.38899">
        <ele>1605</ele>
        <time>2015-08-15T08:12:28Z</time>
      </trkpt>
      <trkpt lat="42.81285" lon="0.38892">
        <ele>1607</ele>
        <time>2015-08-15T08:12:38Z</time>
      </trkpt>
      <trkpt lat="42.81279" lon="0.38882">
        <ele>1609</ele>
        <time>2015-08-15T08:12:49Z</time>
      </trkpt>
      <trkpt lat="42.81272" lon="0.38874">
        <ele>1612</ele>
        <time>2015-08-15T08:12:59Z</time>
      </trkpt>
      <trkpt lat="42.81266" lon="0.38864">
        <ele>1615</ele>
        <time>2015-08-15T08:13:09Z</time>
      </trkpt>
      <trkpt lat="42.81261" lon="0.38855">
        <ele>1617</ele>
        <time>2015-08-15T08:13:19Z</time>
      </trkpt>
      <trkpt lat="42.81255" lon="0.38848">
        <ele>1620</ele>
        <time>2015-08-15T08:13:29Z</time>
      </trkpt>
      <trkpt lat="42.8125" lon="0.38838">
        <ele>1622</ele>
        <time>2015-08-15T08:13:40Z</time>
      </trkpt>
      <trkpt lat="42.81244" lon="0.38829">
        <ele>1625</ele>
        <time>2015-08-15T08:13:50Z</time>
      </trkpt>
      <trkpt lat="42.81239" lon="0.38818">
        <ele>1628</ele>
        <time>2015-08-15T08:14:01Z</time>
      </trkpt>
      <trkpt lat="42.81237" lon="0.38806">
        <ele>1631</ele>
        <time>2015-08-15T08:14:12Z</time>
      </trkpt>
      <trkpt lat="42.81233" lon="0.38793">
        <ele>1634</ele>
        <time>2015-08-15T08:14:22Z</time>
      </trkpt>
      <trkpt lat="42.81229" lon="0.38781">
        <ele>1636</ele>
        <time>2015-08-15T08:14:33Z</time>
      </trkpt>
      <trkpt lat="42.81226" lon="0.38771">
        <ele>1639</ele>
        <time>2015-08-15T08:14:43Z</time>
      </trkpt>
      <trkpt lat="42.81222" lon="0.3876">
        <ele>1642</ele>
        <time>2015-08-15T08:14:54Z</time>
      </trkpt>
      <trkpt lat="42.81218" lon="0.3875">
        <ele>1644</ele>
        <time>2015-08-15T08:15:04Z</time>
      </trkpt>
      <trkpt lat="42.81216" lon="0.38737">
        <ele>1647</ele>
        <time>2015-08-15T08:15:14Z</time>
      </trkpt>
      <trkpt lat="42.81216" lon="0.38722">
        <ele>1649</ele>
        <time>2015-08-15T08:15:25Z</time>
      </trkpt>
      <trkpt lat="42.81213" lon="0.38708">
        <ele>1652</ele>
        <time>2015-08-15T08:15:36Z</time>
      </trkpt>
      <trkpt lat="42.8121" lon="0.38696">
        <ele>1654</ele>
        <time>2015-08-15T08:15:46Z</time>
      </trkpt>
      <trkpt lat="42.81207" lon="0.38683">
        <ele>1657</ele>
        <time>2015-08-15T08:15:56Z</time>
      </trkpt>
      <trkpt lat="42.81204" lon="0.3867">
        <ele>1659</ele>
        <time>2015-08-15T08:16:06Z</time>
      </trkpt>
      <trkpt lat="42.81202" lon="0.38655">
        <ele>1661</ele>
        <time>2015-08-15T08:16:17Z</time>
      </trkpt>
      <trkpt lat="42.81201" lon="0.3864">
        <ele>1664</ele>
        <time>2015-08-15T08:16:28Z</time>
      </trkpt>
      <trkpt lat="42.812" lon="0.38626">
        <ele>1666</ele>
        <time>2015-08-15T08:16:38Z</time>
      </trkpt>
      <trkpt lat="42.81198" lon="0.38611">
        <ele>1669</ele>
        <time>2015-08-15T08:16:48Z</time>
      </trkpt>
      <trkpt lat="42.81196" lon="0.38594">
        <ele>1670</ele>
        <time>2015-08-15T08:16:59Z</time>
      </trkpt>
      <trkpt lat="42.81193" lon="0.38579">
        <ele>1672</ele>
        <time>2015-08-15T08:17:09Z</time>
      </trkpt>
      <trkpt lat="42.81189" lon="0.38564">
        <ele>1675</ele>
        <time>2015-08-15T08:17:20Z</time>
      </trkpt>
      <trkpt lat="42.81185" lon="0.38549">
        <ele>1676</ele>
        <time>2015-08-15T08:17:31Z</time>
      </trkpt>
      <trkpt lat="42.81179" lon="0.38537">
        <ele>1680</ele>
        <time>2015-08-15T08:17:42Z</time>
      </trkpt>
      <trkpt lat="42.81174" lon="0.38526">
        <ele>1683</ele>
        <time>2015-08-15T08:17:53Z</time>
      </trkpt>
      <trkpt lat="42.81168" lon="0.38514">
        <ele>1684</ele>
        <time>2015-08-15T08:18:04Z</time>
      </trkpt>
      <trkpt lat="42.81162" lon="0.38499">
        <ele>1687</ele>
        <time>2015-08-15T08:18:15Z</time>
      </trkpt>
      <trkpt lat="42.81158" lon="0.38487">
        <ele>1689</ele>
        <time>2015-08-15T08:18:25Z</time>
      </trkpt>
      <trkpt lat="42.81152" lon="0.38474">
        <ele>1692</ele>
        <time>2015-08-15T08:18:36Z</time>
      </trkpt>
      <trkpt lat="42.81149" lon="0.38462">
        <ele>1694</ele>
        <time>2015-08-15T08:18:46Z</time>
      </trkpt>
      <trkpt lat="42.81146" lon="0.38451">
        <ele>1697</ele>
        <time>2015-08-15T08:18:57Z</time>
      </trkpt>
      <trkpt lat="42.81135" lon="0.38452">
        <ele>1699</ele>
        <time>2015-08-15T08:19:08Z</time>
      </trkpt>
      <trkpt lat="42.81124" lon="0.38449">
        <ele>1701</ele>
        <time>2015-08-15T08:19:18Z</time>
      </trkpt>
      <trkpt lat="42.81119" lon="0.38438">
        <ele>1703</ele>
        <time>2015-08-15T08:19:28Z</time>
      </trkpt>
      <trkpt lat="42.81117" lon="0.38425">
        <ele>1705</ele>
        <time>2015-08-15T08:19:39Z</time>
      </trkpt>
      <trkpt lat="42.8112" lon="0.38412">
        <ele>1709</ele>
        <time>2015-08-15T08:19:50Z</time>
      </trkpt>
      <trkpt lat="42.81121" lon="0.38397">
        <ele>1710</ele>
        <time>2015-08-15T08:20:00Z</time>
      </trkpt>
      <trkpt lat="42.81123" lon="0.38385">
        <ele>1713</ele>
        <time>2015-08-15T08:20:10Z</time>
      </trkpt>
      <trkpt lat="42.81129" lon="0.38373">
        <ele>1715</ele>
        <time>2015-08-15T08:20:20Z</time>
      </trkpt>
      <trkpt lat="42.81132" lon="0.38357">
        <ele>1718</ele>
        <time>2015-08-15T08:20:31Z</time>
      </trkpt>
      <trkpt lat="42.81133" lon="0.3834">
        <ele>1719</ele>
        <time>2015-08-15T08:20:41Z</time>
      </trkpt>
      <trkpt lat="42.81134" lon="0.38322">
        <ele>1720</ele>
        <time>2015-08-15T08:20:52Z</time>
      </trkpt>
      <trkpt lat="42.81137" lon="0.38306">
        <ele>1720</ele>
        <time>2015-08-15T08:21:02Z</time>
      </trkpt>
      <trkpt lat="42.81141" lon="0.3829">
        <ele>1721</ele>
        <time>2015-08-15T08:21:12Z</time>
      </trkpt>
      <trkpt lat="42.81144" lon="0.38269">
        <ele>1721</ele>
        <time>2015-08-15T08:21:23Z</time>
      </trkpt>
      <trkpt lat="42.81149" lon="0.38236">
        <ele>1722</ele>
        <time>2015-08-15T08:21:34Z</time>
      </trkpt>
      <trkpt lat="42.81156" lon="0.38203">
        <ele>1722</ele>
        <time>2015-08-15T08:21:44Z</time>
      </trkpt>
      <trkpt lat="42.81161" lon="0.38169">
        <ele>1721</ele>
        <time>2015-08-15T08:21:55Z</time>
      </trkpt>
      <trkpt lat="42.81168" lon="0.38135">
        <ele>1721</ele>
        <time>2015-08-15T08:22:06Z</time>
      </trkpt>
      <trkpt lat="42.81167" lon="0.38099">
        <ele>1721</ele>
        <time>2015-08-15T08:22:17Z</time>
      </trkpt>
      <trkpt lat="42.81168" lon="0.38067">
        <ele>1719</ele>
        <time>2015-08-15T08:22:27Z</time>
      </trkpt>
      <trkpt lat="42.81169" lon="0.38035">
        <ele>1719</ele>
        <time>2015-08-15T08:22:37Z</time>
      </trkpt>
      <trkpt lat="42.81169" lon="0.37997">
        <ele>1717</ele>
        <time>2015-08-15T08:22:48Z</time>
      </trkpt>
      <trkpt lat="42.81166" lon="0.37963">
        <ele>1717</ele>
        <time>2015-08-15T08:22:58Z</time>
      </trkpt>
      <trkpt lat="42.81159" lon="0.37926">
        <ele>1717</ele>
        <time>2015-08-15T08:23:09Z</time>
      </trkpt>
      <trkpt lat="42.81155" lon="0.3789">
        <ele>1716</ele>
        <time>2015-08-15T08:23:19Z</time>
      </trkpt>
      <trkpt lat="42.8115" lon="0.37851">
        <ele>1715</ele>
        <time>2015-08-15T08:23:30Z</time>
      </trkpt>
      <trkpt lat="42.8114" lon="0.37817">
        <ele>1714</ele>
        <time>2015-08-15T08:23:40Z</time>
      </trkpt>
      <trkpt lat="42.81129" lon="0.37781">
        <ele>1713</ele>
        <time>2015-08-15T08:23:51Z</time>
      </trkpt>
      <trkpt lat="42.81112" lon="0.37751">
        <ele>1714</ele>
        <time>2015-08-15T08:24:02Z</time>
      </trkpt>
      <trkpt lat="42.81095" lon="0.37726">
        <ele>1713</ele>
        <time>2015-08-15T08:24:12Z</time>
      </trkpt>
      <trkpt lat="42.81076" lon="0.37697">
        <ele>1712</ele>
        <time>2015-08-15T08:24:23Z</time>
      </trkpt>
      <trkpt lat="42.81057" lon="0.37673">
        <ele>1712</ele>
        <time>2015-08-15T08:24:33Z</time>
      </trkpt>
      <trkpt lat="42.81036" lon="0.37651">
        <ele>1711</ele>
        <time>2015-08-15T08:24:43Z</time>
      </trkpt>
      <trkpt lat="42.81019" lon="0.37629">
        <ele>1712</ele>
        <time>2015-08-15T08:24:53Z</time>
      </trkpt>
      <trkpt lat="42.81001" lon="0.37606">
        <ele>1713</ele>
        <time>2015-08-15T08:25:04Z</time>
      </trkpt>
      <trkpt lat="42.80983" lon="0.37594">
        <ele>1715</ele>
        <time>2015-08-15T08:25:15Z</time>
      </trkpt>
      <trkpt lat="42.8097" lon="0.37586">
        <ele>1716</ele>
        <time>2015-08-15T08:25:25Z</time>
      </trkpt>
      <trkpt lat="42.80956" lon="0.3758">
        <ele>1719</ele>
        <time>2015-08-15T08:25:35Z</time>
      </trkpt>
      <trkpt lat="42.80941" lon="0.37573">
        <ele>1720</ele>
        <time>2015-08-15T08:25:46Z</time>
      </trkpt>
      <trkpt lat="42.80928" lon="0.37567">
        <ele>1722</ele>
        <time>2015-08-15T08:25:56Z</time>
      </trkpt>
      <trkpt lat="42.80914" lon="0.37559">
        <ele>1724</ele>
        <time>2015-08-15T08:26:07Z</time>
      </trkpt>
      <trkpt lat="42.80901" lon="0.37553">
        <ele>1726</ele>
        <time>2015-08-15T08:26:17Z</time>
      </trkpt>
      <trkpt lat="42.80888" lon="0.37551">
        <ele>1727</ele>
        <time>2015-08-15T08:26:27Z</time>
      </trkpt>
      <trkpt lat="42.80874" lon="0.37548">
        <ele>1730</ele>
        <time>2015-08-15T08:26:38Z</time>
      </trkpt>
      <trkpt lat="42.8086" lon="0.37546">
        <ele>1732</ele>
        <time>2015-08-15T08:26:48Z</time>
      </trkpt>
      <trkpt lat="42.80845" lon="0.37547">
        <ele>1735</ele>
        <time>2015-08-15T08:26:59Z</time>
      </trkpt>
      <trkpt lat="42.80832" lon="0.37553">
        <ele>1736</ele>
        <time>2015-08-15T08:27:09Z</time>
      </trkpt>
      <trkpt lat="42.80818" lon="0.3756">
        <ele>1737</ele>
        <time>2015-08-15T08:27:19Z</time>
      </trkpt>
      <trkpt lat="42.80804" lon="0.37568">
        <ele>1738</ele>
        <time>2015-08-15T08:27:30Z</time>
      </trkpt>
      <trkpt lat="42.80787" lon="0.37573">
        <ele>1736</ele>
        <time>2015-08-15T08:27:40Z</time>
      </trkpt>
      <trkpt lat="42.80764" lon="0.37576">
        <ele>1729</ele>
        <time>2015-08-15T08:27:50Z</time>
      </trkpt>
      <trkpt lat="42.80738" lon="0.3756">
        <ele>1720</ele>
        <time>2015-08-15T08:28:00Z</time>
      </trkpt>
      <trkpt lat="42.80719" lon="0.37541">
        <ele>1715</ele>
        <time>2015-08-15T08:28:11Z</time>
      </trkpt>
      <trkpt lat="42.80704" lon="0.37525">
        <ele>1711</ele>
        <time>2015-08-15T08:28:21Z</time>
      </trkpt>
      <trkpt lat="42.80689" lon="0.37495">
        <ele>1707</ele>
        <time>2015-08-15T08:28:32Z</time>
      </trkpt>
      <trkpt lat="42.80675" lon="0.37516">
        <ele>1704</ele>
        <time>2015-08-15T08:28:43Z</time>
      </trkpt>
      <trkpt lat="42.80664" lon="0.37549">
        <ele>1700</ele>
        <time>2015-08-15T08:28:53Z</time>
      </trkpt>
      <trkpt lat="42.80647" lon="0.3758">
        <ele>1697</ele>
        <time>2015-08-15T08:29:03Z</time>
      </trkpt>
      <trkpt lat="42.80635" lon="0.3762">
        <ele>1694</ele>
        <time>2015-08-15T08:29:14Z</time>
      </trkpt>
      <trkpt lat="42.80641" lon="0.37659">
        <ele>1691</ele>
        <time>2015-08-15T08:29:24Z</time>
      </trkpt>
      <trkpt lat="42.80655" lon="0.37698">
        <ele>1687</ele>
        <time>2015-08-15T08:29:35Z</time>
      </trkpt>
      <trkpt lat="42.80662" lon="0.37737">
        <ele>1684</ele>
        <time>2015-08-15T08:29:45Z</time>
      </trkpt>
      <trkpt lat="42.8063" lon="0.37728">
        <ele>1680</ele>
        <time>2015-08-15T08:29:56Z</time>
      </trkpt>
      <trkpt lat="42.806" lon="0.37717">
        <ele>1678</ele>
        <time>2015-08-15T08:30:06Z</time>
      </trkpt>
      <trkpt lat="42.80568" lon="0.3771">
        <ele>1674</ele>
        <time>2015-08-15T08:30:17Z</time>
      </trkpt>
      <trkpt lat="42.80536" lon="0.37732">
        <ele>1671</ele>
        <time>2015-08-15T08:30:28Z</time>
      </trkpt>
      <trkpt lat="42.80506" lon="0.37745">
        <ele>1668</ele>
        <time>2015-08-15T08:30:38Z</time>
      </trkpt>
      <trkpt lat="42.80472" lon="0.37743">
        <ele>1663</ele>
        <time>2015-08-15T08:30:48Z</time>
      </trkpt>
      <trkpt lat="42.80437" lon="0.37749">
        <ele>1660</ele>
        <time>2015-08-15T08:30:59Z</time>
      </trkpt>
      <trkpt lat="42.80411" lon="0.37771">
        <ele>1656</ele>
        <time>2015-08-15T08:31:09Z</time>
      </trkpt>
      <trkpt lat="42.80381" lon="0.37784">
        <ele>1653</ele>
        <time>2015-08-15T08:31:19Z</time>
      </trkpt>
      <trkpt lat="42.80351" lon="0.3778">
        <ele>1651</ele>
        <time>2015-08-15T08:31:29Z</time>
      </trkpt>
      <trkpt lat="42.80319" lon="0.37761">
        <ele>1648</ele>
        <time>2015-08-15T08:31:40Z</time>
      </trkpt>
      <trkpt lat="42.80287" lon="0.37741">
        <ele>1645</ele>
        <time>2015-08-15T08:31:51Z</time>
      </trkpt>
      <trkpt lat="42.80256" lon="0.37752">
        <ele>1642</ele>
        <time>2015-08-15T08:32:01Z</time>
      </trkpt>
      <trkpt lat="42.80223" lon="0.37758">
        <ele>1642</ele>
        <time>2015-08-15T08:32:12Z</time>
      </trkpt>
      <trkpt lat="42.80195" lon="0.37759">
        <ele>1641</ele>
        <time>2015-08-15T08:32:23Z</time>
      </trkpt>
      <trkpt lat="42.80164" lon="0.37766">
        <ele>1640</ele>
        <time>2015-08-15T08:32:34Z</time>
      </trkpt>
      <trkpt lat="42.80135" lon="0.37778">
        <ele>1639</ele>
        <time>2015-08-15T08:32:44Z</time>
      </trkpt>
      <trkpt lat="42.80103" lon="0.37793">
        <ele>1637</ele>
        <time>2015-08-15T08:32:55Z</time>
      </trkpt>
      <trkpt lat="42.80076" lon="0.37802">
        <ele>1637</ele>
        <time>2015-08-15T08:33:05Z</time>
      </trkpt>
      <trkpt lat="42.80049" lon="0.37803">
        <ele>1637</ele>
        <time>2015-08-15T08:33:15Z</time>
      </trkpt>
      <trkpt lat="42.80021" lon="0.37805">
        <ele>1637</ele>
        <time>2015-08-15T08:33:26Z</time>
      </trkpt>
      <trkpt lat="42.79995" lon="0.37796">
        <ele>1637</ele>
        <time>2015-08-15T08:33:37Z</time>
      </trkpt>
      <trkpt lat="42.7997" lon="0.37798">
        <ele>1636</ele>
        <time>2015-08-15T08:33:47Z</time>
      </trkpt>
      <trkpt lat="42.79965" lon="0.37837">
        <ele>1633</ele>
        <time>2015-08-15T08:33:57Z</time>
      </trkpt>
      <trkpt lat="42.79956" lon="0.37881">
        <ele>1630</ele>
        <time>2015-08-15T08:34:08Z</time>
      </trkpt>
      <trkpt lat="42.79945" lon="0.37919">
        <ele>1627</ele>
        <time>2015-08-15T08:34:18Z</time>
      </trkpt>
      <trkpt lat="42.79934" lon="0.37957">
        <ele>1624</ele>
        <time>2015-08-15T08:34:28Z</time>
      </trkpt>
      <trkpt lat="42.79901" lon="0.37971">
        <ele>1622</ele>
        <time>2015-08-15T08:34:39Z</time>
      </trkpt>
      <trkpt lat="42.79874" lon="0.37997">
        <ele>1619</ele>
        <time>2015-08-15T08:34:50Z</time>
      </trkpt>
      <trkpt lat="42.79854" lon="0.38031">
        <ele>1616</ele>
        <time>2015-08-15T08:35:00Z</time>
      </trkpt>
      <trkpt lat="42.79835" lon="0.38068">
        <ele>1612</ele>
        <time>2015-08-15T08:35:11Z</time>
      </trkpt>
      <trkpt lat="42.79817" lon="0.38103">
        <ele>1610</ele>
        <time>2015-08-15T08:35:22Z</time>
      </trkpt>
      <trkpt lat="42.79796" lon="0.38138">
        <ele>1607</ele>
        <time>2015-08-15T08:35:33Z</time>
      </trkpt>
      <trkpt lat="42.79776" lon="0.38173">
        <ele>1604</ele>
        <time>2015-08-15T08:35:44Z</time>
      </trkpt>
      <trkpt lat="42.79757" lon="0.3821">
        <ele>1601</ele>
        <time>2015-08-15T08:35:55Z</time>
      </trkpt>
      <trkpt lat="42.7974" lon="0.3825">
        <ele>1598</ele>
        <time>2015-08-15T08:36:06Z</time>
      </trkpt>
      <trkpt lat="42.7972" lon="0.38283">
        <ele>1594</ele>
        <time>2015-08-15T08:36:17Z</time>
      </trkpt>
      <trkpt lat="42.79687" lon="0.38268">
        <ele>1592</ele>
        <time>2015-08-15T08:36:28Z</time>
      </trkpt>
      <trkpt lat="42.79654" lon="0.38258">
        <ele>1589</ele>
        <time>2015-08-15T08:36:39Z</time>
      </trkpt>
      <trkpt lat="42.7962" lon="0.3825">
        <ele>1586</ele>
        <time>2015-08-15T08:36:50Z</time>
      </trkpt>
      <trkpt lat="42.7959" lon="0.38244">
        <ele>1586</ele>
        <time>2015-08-15T08:37:01Z</time>
      </trkpt>
      <trkpt lat="42.79559" lon="0.38237">
        <ele>1586</ele>
        <time>2015-08-15T08:37:12Z</time>
      </trkpt>
      <trkpt lat="42.79528" lon="0.38233">
        <ele>1586</ele>
        <time>2015-08-15T08:37:23Z</time>
      </trkpt>
      <trkpt lat="42.79498" lon="0.38224">
        <ele>1586</ele>
        <time>2015-08-15T08:37:34Z</time>
      </trkpt>
      <trkpt lat="42.79468" lon="0.38212">
        <ele>1585</ele>
        <time>2015-08-15T08:37:45Z</time>
      </trkpt>
      <trkpt lat="42.79442" lon="0.38218">
        <ele>1585</ele>
        <time>2015-08-15T08:37:55Z</time>
      </trkpt>
      <trkpt lat="42.79417" lon="0.38235">
        <ele>1585</ele>
        <time>2015-08-15T08:38:06Z</time>
      </trkpt>
      <trkpt lat="42.79389" lon="0.38235">
        <ele>1584</ele>
        <time>2015-08-15T08:38:16Z</time>
      </trkpt>
      <trkpt lat="42.79363" lon="0.38213">
        <ele>1583</ele>
        <time>2015-08-15T08:38:26Z</time>
      </trkpt>
      <trkpt lat="42.79342" lon="0.38183">
        <ele>1582</ele>
        <time>2015-08-15T08:38:36Z</time>
      </trkpt>
      <trkpt lat="42.79315" lon="0.38154">
        <ele>1580</ele>
        <time>2015-08-15T08:38:47Z</time>
      </trkpt>
      <trkpt lat="42.79287" lon="0.38139">
        <ele>1579</ele>
        <time>2015-08-15T08:38:58Z</time>
      </trkpt>
      <trkpt lat="42.7926" lon="0.38132">
        <ele>1578</ele>
        <time>2015-08-15T08:39:08Z</time>
      </trkpt>
      <trkpt lat="42.79235" lon="0.38112">
        <ele>1577</ele>
        <time>2015-08-15T08:39:19Z</time>
      </trkpt>
      <trkpt lat="42.79214" lon="0.381">
        <ele>1579</ele>
        <time>2015-08-15T08:39:29Z</time>
      </trkpt>
      <trkpt lat="42.79194" lon="0.38089">
        <ele>1582</ele>
        <time>2015-08-15T08:39:39Z</time>
      </trkpt>
      <trkpt lat="42.79175" lon="0.38078">
        <ele>1584</ele>
        <time>2015-08-15T08:39:50Z</time>
      </trkpt>
      <trkpt lat="42.79163" lon="0.38064">
        <ele>1585</ele>
        <time>2015-08-15T08:40:01Z</time>
      </trkpt>
      <trkpt lat="42.79152" lon="0.38051">
        <ele>1587</ele>
        <time>2015-08-15T08:40:11Z</time>
      </trkpt>
      <trkpt lat="42.79142" lon="0.38035">
        <ele>1589</ele>
        <time>2015-08-15T08:40:22Z</time>
      </trkpt>
      <trkpt lat="42.79131" lon="0.38021">
        <ele>1591</ele>
        <time>2015-08-15T08:40:33Z</time>
      </trkpt>
      <trkpt lat="42.7912" lon="0.38003">
        <ele>1593</ele>
        <time>2015-08-15T08:40:44Z</time>
      </trkpt>
      <trkpt lat="42.79108" lon="0.3799">
        <ele>1594</ele>
        <time>2015-08-15T08:40:55Z</time>
      </trkpt>
      <trkpt lat="42.79094" lon="0.3798">
        <ele>1596</ele>
        <time>2015-08-15T08:41:06Z</time>
      </trkpt>
      <trkpt lat="42.79079" lon="0.37969">
        <ele>1598</ele>
        <time>2015-08-15T08:41:17Z</time>
      </trkpt>
      <trkpt lat="42.79068" lon="0.37954">
        <ele>1600</ele>
        <time>2015-08-15T08:41:27Z</time>
      </trkpt>
      <trkpt lat="42.79056" lon="0.3794">
        <ele>1601</ele>
        <time>2015-08-15T08:41:37Z</time>
      </trkpt>
      <trkpt lat="42.79043" lon="0.37926">
        <ele>1602</ele>
        <time>2015-08-15T08:41:47Z</time>
      </trkpt>
      <trkpt lat="42.79029" lon="0.3793">
        <ele>1604</ele>
        <time>2015-08-15T08:41:58Z</time>
      </trkpt>
      <trkpt lat="42.7902" lon="0.37938">
        <ele>1606</ele>
        <time>2015-08-15T08:42:08Z</time>
      </trkpt>
      <trkpt lat="42.79008" lon="0.3795">
        <ele>1608</ele>
        <time>2015-08-15T08:42:18Z</time>
      </trkpt>
      <trkpt lat="42.78998" lon="0.37966">
        <ele>1610</ele>
        <time>2015-08-15T08:42:28Z</time>
      </trkpt>
      <trkpt lat="42.7899" lon="0.37984">
        <ele>1612</ele>
        <time>2015-08-15T08:42:38Z</time>
      </trkpt>
      <trkpt lat="42.78985" lon="0.38002">
        <ele>1612</ele>
        <time>2015-08-15T08:42:48Z</time>
      </trkpt>
      <trkpt lat="42.78984" lon="0.3803">
        <ele>1613</ele>
        <time>2015-08-15T08:42:58Z</time>
      </trkpt>
      <trkpt lat="42.78959" lon="0.3805">
        <ele>1610</ele>
        <time>2015-08-15T08:43:09Z</time>
      </trkpt>
      <trkpt lat="42.78936" lon="0.38063">
        <ele>1607</ele>
        <time>2015-08-15T08:43:19Z</time>
      </trkpt>
      <trkpt lat="42.78943" lon="0.381">
        <ele>1603</ele>
        <time>2015-08-15T08:43:29Z</time>
      </trkpt>
      <trkpt lat="42.78964" lon="0.38131">
        <ele>1598</ele>
        <time>2015-08-15T08:43:39Z</time>
      </trkpt>
      <trkpt lat="42.78978" lon="0.38169">
        <ele>1593</ele>
        <time>2015-08-15T08:43:49Z</time>
      </trkpt>
      <trkpt lat="42.78987" lon="0.38216">
        <ele>1586</ele>
        <time>2015-08-15T08:44:00Z</time>
      </trkpt>
      <trkpt lat="42.78991" lon="0.38263">
        <ele>1580</ele>
        <time>2015-08-15T08:44:11Z</time>
      </trkpt>
      <trkpt lat="42.7899" lon="0.38311">
        <ele>1574</ele>
        <time>2015-08-15T08:44:22Z</time>
      </trkpt>
      <trkpt lat="42.7898" lon="0.38348">
        <ele>1568</ele>
        <time>2015-08-15T08:44:32Z</time>
      </trkpt>
      <trkpt lat="42.78986" lon="0.3838">
        <ele>1561</ele>
        <time>2015-08-15T08:44:42Z</time>
      </trkpt>
      <trkpt lat="42.79002" lon="0.38408">
        <ele>1554</ele>
        <time>2015-08-15T08:44:52Z</time>
      </trkpt>
      <trkpt lat="42.79016" lon="0.38442">
        <ele>1548</ele>
        <time>2015-08-15T08:45:02Z</time>
      </trkpt>
      <trkpt lat="42.79023" lon="0.38478">
        <ele>1542</ele>
        <time>2015-08-15T08:45:13Z</time>
      </trkpt>
      <trkpt lat="42.79022" lon="0.38502">
        <ele>1536</ele>
        <time>2015-08-15T08:45:23Z</time>
      </trkpt>
      <trkpt lat="42.79023" lon="0.38524">
        <ele>1530</ele>
        <time>2015-08-15T08:45:33Z</time>
      </trkpt>
      <trkpt lat="42.79029" lon="0.38541">
        <ele>1524</ele>
        <time>2015-08-15T08:45:44Z</time>
      </trkpt>
      <trkpt lat="42.79035" lon="0.38562">
        <ele>1518</ele>
        <time>2015-08-15T08:45:54Z</time>
      </trkpt>
      <trkpt lat="42.79036" lon="0.38588">
        <ele>1512</ele>
        <time>2015-08-15T08:46:05Z</time>
      </trkpt>
      <trkpt lat="42.79034" lon="0.38613">
        <ele>1506</ele>
        <time>2015-08-15T08:46:15Z</time>
      </trkpt>
      <trkpt lat="42.79037" lon="0.38648">
        <ele>1498</ele>
        <time>2015-08-15T08:46:26Z</time>
      </trkpt>
      <trkpt lat="42.79039" lon="0.38684">
        <ele>1492</ele>
        <time>2015-08-15T08:46:36Z</time>
      </trkpt>
      <trkpt lat="42.79031" lon="0.38721">
        <ele>1485</ele>
        <time>2015-08-15T08:46:47Z</time>
      </trkpt>
      <trkpt lat="42.79016" lon="0.38759">
        <ele>1479</ele>
        <time>2015-08-15T08:46:57Z</time>
      </trkpt>
      <trkpt lat="42.79005" lon="0.38798">
        <ele>1472</ele>
        <time>2015-08-15T08:47:07Z</time>
      </trkpt>
      <trkpt lat="42.79002" lon="0.38848">
        <ele>1465</ele>
        <time>2015-08-15T08:47:18Z</time>
      </trkpt>
      <trkpt lat="42.79004" lon="0.38894">
        <ele>1460</ele>
        <time>2015-08-15T08:47:28Z</time>
      </trkpt>
      <trkpt lat="42.79007" lon="0.38929">
        <ele>1456</ele>
        <time>2015-08-15T08:47:38Z</time>
      </trkpt>
      <trkpt lat="42.79008" lon="0.38939">
        <ele>1456</ele>
        <time>2015-08-15T08:47:39Z</time>
      </trkpt>
    </trkseg>
  </trk>
</gpx>